createdAt,value
2019-01-04T00:02:33.376Z,92.40
2019-01-04T00:05:28.077Z,92.31
2019-01-04T00:08:18.323Z,92.24
2019-01-04T00:10:48.865Z,92.23
2019-01-04T00:13:30.932Z,92.71
2019-01-04T00:19:30.935Z,92.10
2019-01-04T00:22:01.294Z,92.30
2019-01-04T00:24:35.062Z,92.23
2019-01-04T00:27:02.733Z,92.38
2019-01-04T00:30:05.081Z,92.26
2019-01-04T00:32:32.628Z,91.98
2019-01-04T00:35:00.033Z,91.62
2019-01-04T00:37:27.919Z,91.77
2019-01-04T00:40:05.734Z,91.68
2019-01-04T00:42:33.371Z,91.30
2019-01-04T00:45:08.306Z,91.33
2019-01-04T00:47:44.673Z,91.79
2019-01-04T00:50:13.044Z,91.54
2019-01-04T00:52:49.052Z,91.35
2019-01-04T00:56:13.822Z,91.58
2019-01-04T00:59:16.894Z,91.21
2019-01-04T01:02:33.277Z,91.10
2019-01-04T01:05:37.034Z,90.94
2019-01-04T01:08:31.453Z,91.32
2019-01-04T01:11:37.338Z,91.37
2019-01-04T01:14:42.767Z,91.40
2019-01-04T01:17:52.373Z,91.21
2019-01-04T01:21:03.747Z,91.55
2019-01-04T01:28:09.063Z,91.34
2019-01-04T01:31:24.038Z,91.68
2019-01-04T01:34:51.568Z,91.67
2019-01-04T01:38:15.541Z,91.36
2019-01-04T01:41:25.783Z,91.59
2019-01-04T01:44:47.435Z,91.82
2019-01-04T01:47:22.723Z,91.98
2019-01-04T01:50:39.908Z,91.74
2019-01-04T01:53:26.467Z,91.93
2019-01-04T01:55:54.039Z,91.89
2019-01-04T01:58:21.541Z,92.13
2019-01-04T02:00:49.059Z,92.23
2019-01-04T02:03:16.798Z,92.03
2019-01-04T02:05:44.479Z,91.70
2019-01-04T02:08:12.023Z,91.43
2019-01-04T02:10:39.513Z,91.33
2019-01-04T02:13:51.127Z,91.56
2019-01-04T02:16:18.637Z,91.25
2019-01-04T02:19:29.062Z,91.51
2019-01-04T02:21:56.674Z,91.47
2019-01-04T02:24:24.192Z,91.71
2019-01-04T02:26:51.667Z,91.64
2019-01-04T02:29:19.248Z,91.23
2019-01-04T02:31:46.873Z,91.15
2019-01-04T02:35:00.752Z,91.11
2019-01-04T02:37:42.744Z,91.20
2019-01-04T02:41:34.250Z,92.22
2019-01-04T02:44:07.287Z,92.33
2019-01-04T02:47:13.859Z,92.18
2019-01-04T02:50:08.048Z,92.24
2019-01-04T02:52:59.446Z,92.22
2019-01-04T02:56:05.282Z,92.08
2019-01-04T02:58:52.969Z,92.09
2019-01-04T03:01:42.863Z,91.96
2019-01-04T03:04:29.813Z,91.88
2019-01-04T03:07:49.693Z,91.87
2019-01-04T03:10:17.339Z,92.00
2019-01-04T03:12:44.860Z,91.84
2019-01-04T03:15:12.374Z,91.81
2019-01-04T03:17:39.914Z,91.67
2019-01-04T03:20:07.538Z,91.42
2019-01-04T03:22:35.099Z,91.19
2019-01-04T03:25:02.742Z,91.05
2019-01-04T03:27:30.305Z,90.71
2019-01-04T03:30:00.869Z,90.52
2019-01-04T03:32:28.417Z,90.57
2019-01-04T03:34:55.953Z,90.37
2019-01-04T03:37:23.442Z,90.32
2019-01-04T03:39:51.074Z,90.26
2019-01-04T03:42:18.609Z,90.26
2019-01-04T03:44:46.169Z,90.13
2019-01-04T03:47:13.653Z,90.13
2019-01-04T03:49:41.259Z,90.11
2019-01-04T03:52:08.974Z,90.13
2019-01-04T03:54:36.573Z,90.13
2019-01-04T03:57:04.244Z,90.07
2019-01-04T03:59:31.805Z,90.11
2019-01-04T04:01:59.356Z,90.18
2019-01-04T04:04:26.908Z,90.23
2019-01-04T04:06:54.519Z,90.33
2019-01-04T04:09:22.101Z,90.34
2019-01-04T04:11:49.822Z,90.32
2019-01-04T04:14:17.361Z,90.38
2019-01-04T04:16:44.983Z,90.25
2019-01-04T04:19:12.494Z,90.42
2019-01-04T04:22:06.623Z,90.47
2019-01-04T04:24:34.066Z,90.43
2019-01-04T04:27:01.854Z,90.35
2019-01-04T04:29:29.385Z,90.44
2019-01-04T04:31:56.984Z,90.57
2019-01-04T04:34:24.616Z,90.75
2019-01-04T04:36:52.199Z,90.73
2019-01-04T04:39:19.736Z,90.66
2019-01-04T04:41:47.374Z,90.67
2019-01-04T04:44:14.779Z,90.69
2019-01-04T04:46:42.543Z,90.74
2019-01-04T04:49:10.149Z,90.79
2019-01-04T04:51:37.903Z,90.76
2019-01-04T04:54:05.423Z,90.77
2019-01-04T04:56:32.905Z,90.71
2019-01-04T04:59:00.594Z,90.63
2019-01-04T05:01:28.348Z,90.54
2019-01-04T05:03:56.087Z,90.53
2019-01-04T05:06:23.614Z,90.52
2019-01-04T05:08:51.510Z,90.33
2019-01-04T05:11:19.124Z,90.06
2019-01-04T05:14:25.178Z,89.84
2019-01-04T05:16:52.938Z,89.76
2019-01-04T05:19:20.898Z,89.53
2019-01-04T05:21:48.493Z,89.44
2019-01-04T05:24:16.023Z,89.10
2019-01-04T05:26:43.570Z,88.97
2019-01-04T05:29:11.319Z,88.91
2019-01-04T05:31:38.907Z,88.96
2019-01-04T05:34:06.458Z,88.71
2019-01-04T05:36:33.983Z,88.30
2019-01-04T05:39:01.517Z,88.27
2019-01-04T05:41:29.163Z,88.30
2019-01-04T05:43:56.698Z,88.06
2019-01-04T05:46:24.255Z,87.90
2019-01-04T05:48:51.924Z,87.89
2019-01-04T05:51:19.575Z,87.90
2019-01-04T05:53:50.393Z,87.83
2019-01-04T05:56:17.998Z,87.97
2019-01-04T05:58:45.536Z,88.11
2019-01-04T06:01:13.237Z,87.91
2019-01-04T06:03:40.910Z,88.02
2019-01-04T06:06:08.915Z,87.89
2019-01-04T06:08:36.378Z,87.59
2019-01-04T06:11:03.973Z,87.61
2019-01-04T06:13:31.558Z,87.52
2019-01-04T06:15:59.421Z,87.43
2019-01-04T06:18:26.899Z,87.46
2019-01-04T06:20:54.458Z,87.48
2019-01-04T06:23:22.013Z,87.36
2019-01-04T06:25:49.399Z,87.33
2019-01-04T06:28:17.313Z,87.10
2019-01-04T06:30:45.032Z,87.19
2019-01-04T06:33:12.629Z,87.58
2019-01-04T06:35:40.058Z,87.72
2019-01-04T06:38:07.529Z,87.82
2019-01-04T06:40:34.988Z,88.31
2019-01-04T06:43:02.473Z,88.48
2019-01-04T06:45:29.878Z,88.73
2019-01-04T06:47:57.333Z,89.03
2019-01-04T06:50:24.838Z,89.08
2019-01-04T06:52:52.644Z,89.07
2019-01-04T06:55:56.861Z,88.99
2019-01-04T06:58:24.289Z,88.81
2019-01-04T07:00:51.823Z,89.00
2019-01-04T07:03:19.364Z,89.06
2019-01-04T07:05:46.753Z,89.22
2019-01-04T07:08:14.208Z,89.21
2019-01-04T07:10:41.814Z,89.29
2019-01-04T07:13:09.348Z,89.52
2019-01-04T07:15:36.854Z,89.68
2019-01-04T07:18:04.448Z,89.66
2019-01-04T07:20:31.869Z,89.65
2019-01-04T07:22:59.328Z,89.96
2019-01-04T07:25:26.738Z,90.29
2019-01-04T07:27:54.181Z,90.52
2019-01-04T07:30:21.638Z,90.51
2019-01-04T07:32:49.153Z,90.90
2019-01-04T07:35:16.629Z,91.03
2019-01-04T07:37:44.090Z,91.16
2019-01-04T07:40:11.493Z,91.35
2019-01-04T07:42:39.015Z,91.54
2019-01-04T07:45:08.070Z,91.44
2019-01-04T07:47:35.508Z,91.25
2019-01-04T07:50:03.248Z,91.25
2019-01-04T07:52:30.753Z,91.31
2019-01-04T07:54:58.226Z,91.37
2019-01-04T07:57:25.658Z,91.17
2019-01-04T07:59:53.128Z,91.20
2019-01-04T08:02:50.445Z,91.25
2019-01-04T08:05:27.957Z,91.26
2019-01-04T08:07:55.409Z,91.39
2019-01-04T08:10:23.253Z,91.41
2019-01-04T08:12:50.673Z,91.39
2019-01-04T08:15:18.268Z,91.68
2019-01-04T08:17:45.778Z,91.96
2019-01-04T08:20:13.278Z,91.97
2019-01-04T08:22:40.850Z,91.91
2019-01-04T08:25:09.095Z,91.76
2019-01-04T08:27:37.870Z,91.67
2019-01-04T08:30:08.732Z,91.48
2019-01-04T08:32:36.292Z,91.28
2019-01-04T08:35:04.391Z,90.98
2019-01-04T08:37:31.911Z,90.82
2019-01-04T08:39:59.530Z,90.75
2019-01-04T08:42:27.071Z,90.58
2019-01-04T08:44:54.750Z,90.43
2019-01-04T08:47:22.314Z,90.64
2019-01-04T08:49:50.150Z,90.75
2019-01-04T08:52:17.698Z,90.75
2019-01-04T08:54:45.513Z,90.73
2019-01-04T08:57:12.933Z,90.56
2019-01-04T08:59:40.784Z,90.60
2019-01-04T09:02:08.493Z,90.74
2019-01-04T09:04:36.414Z,90.91
2019-01-04T09:07:03.848Z,90.74
2019-01-04T09:09:31.319Z,90.88
2019-01-04T09:11:58.733Z,90.94
2019-01-04T09:14:26.218Z,91.05
2019-01-04T09:16:54.029Z,90.93
2019-01-04T09:19:21.498Z,91.01
2019-01-04T09:21:48.898Z,90.94
2019-01-04T09:24:16.299Z,90.89
2019-01-04T09:43:30.432Z,89.82
2019-01-04T09:53:11.397Z,89.51
2019-01-04T09:58:58.173Z,89.53
2019-01-04T10:09:51.192Z,89.05
2019-01-04T10:19:34.443Z,88.67
2019-01-04T10:22:01.998Z,89.17
2019-01-04T10:24:29.598Z,89.37
2019-01-04T10:26:57.128Z,89.18
2019-01-04T10:29:24.536Z,89.02
2019-01-04T10:31:51.979Z,88.87
2019-01-04T10:34:19.398Z,88.81
2019-01-04T10:36:46.904Z,88.74
2019-01-04T10:39:14.283Z,88.54
2019-01-04T10:41:41.849Z,88.71
2019-01-04T10:44:10.189Z,89.05
2019-01-04T10:46:37.663Z,89.11
2019-01-04T10:49:05.131Z,89.32
2019-01-04T10:51:32.658Z,89.55
2019-01-04T10:54:00.109Z,88.84
2019-01-04T10:56:27.528Z,88.61
2019-01-04T10:58:54.979Z,88.71
2019-01-04T11:01:22.533Z,88.40
2019-01-04T11:03:50.013Z,88.38
2019-01-04T11:06:17.453Z,88.37
2019-01-04T11:08:44.888Z,88.45
2019-01-04T11:11:12.353Z,88.18
2019-01-04T11:13:39.800Z,88.07
2019-01-04T11:16:07.300Z,87.93
2019-01-04T11:18:34.713Z,87.73
2019-01-04T11:21:05.032Z,87.89
2019-01-04T11:24:13.703Z,88.02
2019-01-04T11:27:04.815Z,88.23
2019-01-04T11:30:15.898Z,88.39
2019-01-04T11:33:26.688Z,88.86
2019-01-04T11:36:28.331Z,88.80
2019-01-04T11:39:37.529Z,88.90
2019-01-04T11:42:38.289Z,89.08
2019-01-04T11:45:35.756Z,89.51
2019-01-04T11:48:11.632Z,89.66
2019-01-04T11:51:07.669Z,89.61
2019-01-04T11:53:35.396Z,89.56
2019-01-04T11:56:03.164Z,90.02
2019-01-04T11:58:30.776Z,89.69
2019-01-04T12:00:58.426Z,89.58
2019-01-04T12:03:26.076Z,89.67
2019-01-04T12:05:53.697Z,89.62
2019-01-04T12:08:21.462Z,89.70
2019-01-04T12:10:49.136Z,89.79
2019-01-04T12:13:16.897Z,90.04
2019-01-04T12:15:44.576Z,89.90
2019-01-04T12:18:12.356Z,89.90
2019-01-04T12:20:45.266Z,90.14
2019-01-04T12:23:11.270Z,90.18
2019-01-04T12:25:38.993Z,90.06
2019-01-04T12:28:06.590Z,90.01
2019-01-04T12:30:34.253Z,90.20
2019-01-04T12:33:01.870Z,90.32
2019-01-04T12:35:29.511Z,90.21
2019-01-04T12:37:57.230Z,90.21
2019-01-04T12:40:24.838Z,90.18
2019-01-04T12:42:52.609Z,90.26
2019-01-04T12:45:20.581Z,90.43
2019-01-04T12:47:48.435Z,90.35
2019-01-04T12:50:16.268Z,90.62
2019-01-04T12:52:44.256Z,90.66
2019-01-04T12:55:11.992Z,90.72
2019-01-04T12:57:39.916Z,90.74
2019-01-04T13:00:09.903Z,90.70
2019-01-04T13:02:37.612Z,90.41
2019-01-04T13:05:05.665Z,90.39
2019-01-04T13:07:33.443Z,90.56
2019-01-04T13:10:01.307Z,90.66
2019-01-04T13:12:29.162Z,90.59
2019-01-04T13:14:56.978Z,90.70
2019-01-04T13:17:24.983Z,90.80
2019-01-04T13:19:53.404Z,91.02
2019-01-04T13:22:21.417Z,91.14
2019-01-04T13:24:49.203Z,91.42
2019-01-04T13:27:17.002Z,91.56
2019-01-04T13:29:44.923Z,91.57
2019-01-04T13:32:12.944Z,91.72
2019-01-04T13:34:40.784Z,91.85
2019-01-04T13:37:08.937Z,91.96
2019-01-04T13:39:36.755Z,91.74
2019-01-04T13:42:05.074Z,91.77
2019-01-04T13:44:33.105Z,91.68
2019-01-04T13:47:01.144Z,91.66
2019-01-04T13:49:28.978Z,91.51
2019-01-04T13:51:56.887Z,91.45
2019-01-04T13:54:24.857Z,91.52
2019-01-04T13:56:52.656Z,91.54
2019-01-04T13:59:22.376Z,91.54
2019-01-04T14:01:50.332Z,91.53
2019-01-04T14:04:18.460Z,91.75
2019-01-04T14:06:47.459Z,91.81
2019-01-04T14:09:15.274Z,91.88
2019-01-04T14:11:43.335Z,92.13
2019-01-04T14:14:11.314Z,92.23
2019-01-04T14:16:39.577Z,92.42
2019-01-04T14:19:07.352Z,92.68
2019-01-04T14:21:35.590Z,92.68
2019-01-04T14:24:03.667Z,92.83
2019-01-04T14:26:31.715Z,92.89
2019-01-04T14:28:59.563Z,93.04
2019-01-04T14:31:27.320Z,93.02
2019-01-04T14:34:00.233Z,92.92
2019-01-04T14:36:26.979Z,92.77
2019-01-04T14:38:54.740Z,92.77
2019-01-04T14:41:23.410Z,92.73
2019-01-04T14:43:51.422Z,92.48
2019-01-04T14:46:20.386Z,92.71
2019-01-04T14:48:48.197Z,92.72
2019-01-04T14:51:16.245Z,92.64
2019-01-04T14:53:44.094Z,92.65
2019-01-04T14:56:13.296Z,92.58
2019-01-04T14:58:40.976Z,92.50
2019-01-04T15:01:08.866Z,92.62
2019-01-04T15:03:37.020Z,92.64
2019-01-04T15:06:07.276Z,92.67
2019-01-04T15:08:35.391Z,92.71
2019-01-04T15:11:03.434Z,92.68
2019-01-04T15:13:31.449Z,92.66
2019-01-04T15:15:59.238Z,92.75
2019-01-04T15:18:27.159Z,92.75
2019-01-04T15:20:55.095Z,92.96
2019-01-04T15:23:23.194Z,93.14
2019-01-04T15:25:51.466Z,93.11
2019-01-04T15:28:19.306Z,93.07
2019-01-04T15:30:48.039Z,92.96
2019-01-04T15:33:15.881Z,92.96
2019-01-04T15:35:43.873Z,93.17
2019-01-04T15:38:12.005Z,93.38
2019-01-04T15:40:40.000Z,93.58
2019-01-04T15:43:08.031Z,93.42
2019-01-04T15:45:36.095Z,93.45
2019-01-04T15:48:04.095Z,93.57
2019-01-04T15:50:31.938Z,93.58
2019-01-04T15:52:59.843Z,93.52
2019-01-04T15:55:28.051Z,93.39
2019-01-04T15:57:56.097Z,93.39
2019-01-04T16:00:24.343Z,93.37
2019-01-04T16:02:52.658Z,93.41
2019-01-04T16:05:20.823Z,93.56
2019-01-04T16:07:48.964Z,93.59
2019-01-04T16:10:17.275Z,93.66
2019-01-04T16:12:46.971Z,93.59
2019-01-04T16:15:15.306Z,93.42
2019-01-04T16:17:43.601Z,93.22
2019-01-04T16:20:12.142Z,93.10
2019-01-04T16:22:40.374Z,93.08
2019-01-04T16:25:08.564Z,92.99
2019-01-04T16:27:37.895Z,93.06
2019-01-04T16:30:08.756Z,93.00
2019-01-04T16:32:38.782Z,92.86
2019-01-04T16:35:08.620Z,92.72
2019-01-04T16:37:37.097Z,92.77
2019-01-04T16:40:07.164Z,92.77
2019-01-04T16:42:38.173Z,92.74
2019-01-04T16:45:08.966Z,92.65
2019-01-04T16:47:37.375Z,92.55
2019-01-04T16:50:05.462Z,92.47
2019-01-04T16:52:33.377Z,92.57
2019-01-04T16:55:02.415Z,92.50
2019-01-04T16:57:33.348Z,92.55
2019-01-04T17:00:01.358Z,92.50
2019-01-04T17:02:29.557Z,92.57
2019-01-04T17:04:57.555Z,92.69
2019-01-04T17:07:25.577Z,92.82
2019-01-04T17:09:53.955Z,93.11
2019-01-04T17:12:21.935Z,93.24
2019-01-04T17:14:50.336Z,93.32
2019-01-04T17:17:28.713Z,93.39
2019-01-04T17:19:55.077Z,93.26
2019-01-04T17:22:23.167Z,93.31
2019-01-04T17:25:16.485Z,93.35
2019-01-04T17:27:44.817Z,93.40
2019-01-04T17:34:47.795Z,93.29
2019-01-04T22:42:57.551Z,95.97
2019-01-04T22:45:43.056Z,96.12
2019-01-04T22:48:42.456Z,96.10
2019-01-04T22:51:39.361Z,96.12
2019-01-04T22:54:25.128Z,96.21
2019-01-04T22:57:21.301Z,96.26
2019-01-04T23:00:14.511Z,96.34
2019-01-04T23:03:00.573Z,96.31
2019-01-04T23:05:46.414Z,96.27
2019-01-04T23:08:36.228Z,96.31
2019-01-04T23:11:23.449Z,96.34
2019-01-04T23:14:16.549Z,96.36
2019-01-04T23:17:02.377Z,96.46
2019-01-04T23:20:01.529Z,96.50
2019-01-04T23:23:09.469Z,96.54
2019-01-04T23:25:56.500Z,96.62
2019-01-04T23:28:47.251Z,96.55
2019-01-04T23:31:43.349Z,96.44
2019-01-04T23:34:29.255Z,96.40
2019-01-04T23:37:16.871Z,96.33
2019-01-04T23:40:07.075Z,96.29
2019-01-04T23:43:22.630Z,96.18
2019-01-04T23:46:08.212Z,96.11
2019-01-04T23:49:31.000Z,96.04
2019-01-04T23:52:17.094Z,96.00
2019-01-04T23:55:02.712Z,95.85
2019-01-04T23:58:01.938Z,95.79
